| time (UTC) | temp C | wind direction | speed KPH | gust KPH | rain 1hr cm | rain 24hr cm | rain mn cm | humidity % | barometer mb |
| 20260510204507 | 20 | 274 | 0.0 | 0.0 | 0.00 | 0.43 | 0.00 | 40 | 1018.8 |
| 20260510203001 | 20 | 304 | 0.0 | 0.0 | 0.00 | 0.43 | 0.00 | 44 | 1018.7 |
| 20260510201603 | 20 | 11 | 0.0 | 0.0 | 0.00 | 0.43 | 0.00 | 43 | 1018.7 |
| 20260510200059 | 20 | 28 | 0.0 | 0.0 | 0.00 | 0.43 | 0.00 | 43 | 1018.8 |
| 20260510194610 | 20 | 355 | 0.0 | 0.0 | 0.00 | 0.43 | 0.00 | 46 | 1018.8 |
| 20260510193101 | 20 | 288 | 0.0 | 0.0 | 0.00 | 0.43 | 0.00 | 42 | 1018.8 |
| 20260510191556 | 19 | 346 | 0.0 | 0.0 | 0.00 | 0.43 | 0.00 | 49 | 1018.9 |
| 20260510190105 | 18 | 339 | 0.0 | 0.0 | 0.00 | 0.43 | 0.00 | 48 | 1018.8 |
| 20260510184605 | 18 | 9 | 0.0 | 0.0 | 0.00 | 0.43 | 0.00 | 43 | 1018.6 |
| 20260510183056 | 19 | 32 | 0.0 | 0.0 | 0.00 | 0.43 | 0.00 | 46 | 1018.7 |
| 20260510181610 | 19 | 13 | 0.0 | 0.0 | 0.00 | 0.43 | 0.00 | 47 | 1018.6 |
| 20260510180052 | 18 | 5 | 0.0 | 0.0 | 0.00 | 0.43 | 0.00 | 44 | 1018.4 |
| 20260510174554 | 18 | 28 | 0.0 | 0.0 | 0.00 | 0.43 | 0.00 | 50 | 1018.7 |
| 20260510173041 | 17 | 331 | 0.0 | 0.0 | 0.00 | 0.43 | 0.00 | 50 | 1018.8 |
| 20260510171556 | 17 | 333 | 0.0 | 0.0 | 0.00 | 0.43 | 0.00 | 51 | 1019.0 |
| 20260510170046 | 17 | 338 | 0.0 | 0.0 | 0.00 | 0.43 | 0.00 | 54 | 1019.0 |
| 20260510164535 | 17 | 288 | 0.0 | 0.0 | 0.00 | 0.43 | 0.00 | 62 | 1019.1 |
| 20260510163043 | 16 | 295 | 0.0 | 0.0 | 0.00 | 0.43 | 0.00 | 62 | 1019.0 |
| 20260510161533 | 16 | 327 | 0.0 | 0.0 | 0.00 | 0.43 | 0.00 | 59 | 1019.2 |
| 20260510160039 | 16 | 10 | 0.0 | 0.0 | 0.00 | 0.43 | 0.00 | 58 | 1019.2 |
| 20260510154533 | 15 | 317 | 0.0 | 0.0 | 0.00 | 0.43 | 0.00 | 63 | 1019.1 |
| 20260510153037 | 15 | 350 | 0.0 | 0.0 | 0.00 | 0.43 | 0.00 | 67 | 1019.1 |
| 20260510151528 | 15 | 331 | 0.0 | 0.0 | 0.00 | 0.43 | 0.00 | 69 | 1018.8 |
| 20260510150025 | 15 | 309 | 0.0 | 0.0 | 0.00 | 0.43 | 0.00 | 69 | 1018.6 |
| 20260510144525 | 15 | 342 | 0.0 | 0.0 | 0.00 | 0.43 | 0.00 | 67 | 1018.6 |
| 20260510143021 | 14 | 271 | 0.0 | 0.0 | 0.00 | 0.43 | 0.00 | 67 | 1018.3 |
| 20260510141519 | 15 | 355 | 8.0 | 11.3 | 0.00 | 0.43 | 0.00 | 65 | 1018.1 |
| 20260510140022 | 15 | 335 | 6.4 | 12.9 | 0.00 | 0.43 | 0.00 | 68 | 1017.7 |
| 20260510134517 | 14 | 343 | 6.4 | 11.3 | 0.00 | 0.43 | 0.00 | 69 | 1017.7 |
| 20260510133016 | 14 | 330 | 4.8 | 14.5 | 0.00 | 0.43 | 0.00 | 72 | 1017.5 |
| 20260510131513 | 13 | 350 | 3.2 | 9.7 | 0.00 | 0.43 | 0.00 | 75 | 1017.6 |
| 20260510130014 | 13 | 311 | 0.0 | 8.0 | 0.00 | 0.43 | 0.00 | 76 | 1017.3 |
| 20260510124509 | 12 | 290 | 3.2 | 8.0 | 0.00 | 0.43 | 0.00 | 80 | 1017.2 |
| 20260510123007 | 12 | 355 | 3.2 | 12.9 | 0.00 | 0.43 | 0.00 | 82 | 1016.8 |
| 20260510121503 | 12 | 345 | 3.2 | 8.0 | 0.00 | 0.43 | 0.00 | 87 | 1016.7 |
| 20260510120003 | 12 | 348 | 0.0 | 4.8 | 0.00 | 0.43 | 0.00 | 90 | 1016.5 |
| 20260510114621 | 11 | 348 | 1.6 | 4.8 | 0.00 | 0.43 | 0.00 | 90 | 1016.1 |
| 20260510113101 | 11 | 348 | 0.0 | 0.0 | 0.00 | 0.43 | 0.00 | 90 | 1015.7 |
| 20260510111555 | 11 | 348 | 0.0 | 4.8 | 0.00 | 0.43 | 0.00 | 91 | 1015.3 |
| 20260510110100 | 11 | 300 | 0.0 | 4.8 | 0.00 | 0.43 | 0.00 | 92 | 1015.1 |
| 20260510104550 | 11 | 329 | 0.0 | 4.8 | 0.00 | 0.43 | 0.00 | 92 | 1014.8 |
| 20260510103053 | 11 | 329 | 0.0 | 0.0 | 0.00 | 0.43 | 0.00 | 93 | 1014.6 |
| 20260510101557 | 12 | 330 | 0.0 | 0.0 | 0.00 | 0.43 | 0.00 | 93 | 1014.3 |
| 20260510100050 | 12 | 330 | 0.0 | 0.0 | 0.00 | 0.43 | 0.00 | 94 | 1014.0 |
| 20260510094548 | 12 | 329 | 0.0 | 0.0 | 0.00 | 0.43 | 0.00 | 95 | 1013.9 |
| 20260510093040 | 12 | 329 | 0.0 | 4.8 | 0.00 | 0.43 | 0.00 | 95 | 1013.7 |
| 20260510091535 | 13 | 329 | 0.0 | 4.8 | 0.00 | 0.43 | 0.00 | 95 | 1013.6 |
| 20260510090034 | 13 | 329 | 0.0 | 6.4 | 0.00 | 0.43 | 0.00 | 95 | 1013.5 |
| 20260510084534 | 13 | 329 | 3.2 | 4.8 | 0.00 | 0.43 | 0.00 | 95 | 1013.1 |
| 20260510083029 | 13 | 329 | 0.0 | 0.0 | 0.00 | 0.43 | 0.00 | 95 | 1012.7 |
| 20260510081536 | 13 | 329 | 0.0 | 0.0 | 0.00 | 0.43 | 0.00 | 95 | 1012.5 |
| 20260510080038 | 14 | 329 | 0.0 | 0.0 | 0.00 | 0.43 | 0.00 | 95 | 1012.3 |
| 20260510074524 | 14 | 329 | 0.0 | 0.0 | 0.00 | 0.43 | 0.00 | 95 | 1011.9 |
| 20260510073034 | 14 | 329 | 1.6 | 4.8 | 0.00 | 0.43 | 0.00 | 95 | 1011.9 |
| 20260510071519 | 15 | 331 | 1.6 | 4.8 | 0.00 | 0.43 | 0.00 | 95 | 1012.0 |
| 20260510070017 | 15 | 331 | 0.0 | 3.2 | 0.00 | 0.43 | 0.00 | 95 | 1011.9 |
| 20260510064517 | 15 | 331 | 0.0 | 0.0 | 0.00 | 0.43 | 0.00 | 95 | 1012.0 |
| 20260510063018 | 15 | 331 | 0.0 | 3.2 | 0.00 | 0.43 | 0.00 | 95 | 1011.8 |
| 20260510061515 | 15 | 331 | 0.0 | 1.6 | 0.00 | 0.43 | 0.00 | 95 | 1011.7 |
| 20260510060031 | 15 | 331 | 0.0 | 4.8 | 0.00 | 0.43 | 0.00 | 95 | 1012.0 |
| 20260510054516 | 15 | 335 | 1.6 | 8.0 | 0.00 | 0.43 | 0.00 | 95 | 1011.7 |
| 20260510053007 | 15 | 338 | 3.2 | 9.7 | 0.03 | 0.43 | 0.00 | 94 | 1011.3 |
| 20260510051505 | 15 | 330 | 0.0 | 9.7 | 0.03 | 0.43 | 0.00 | 94 | 1011.0 |
| 20260510050008 | 16 | 319 | 1.6 | 6.4 | 0.10 | 0.43 | 0.00 | 94 | 1011.3 |
| 20260510044503 | 16 | 52 | 3.2 | 6.4 | 0.15 | 0.43 | 0.43 | 94 | 1010.8 |
| 20260510043001 | 16 | 54 | 0.0 | 4.8 | 0.18 | 0.41 | 0.41 | 94 | 1010.5 |
| 20260510041610 | 16 | 50 | 0.0 | 8.0 | 0.23 | 0.41 | 0.41 | 93 | 1010.6 |
| 20260510040113 | 16 | 309 | 3.2 | 8.0 | 0.20 | 0.33 | 0.33 | 92 | 1011.3 |
| 20260510034600 | 16 | 51 | 3.2 | 9.7 | 0.28 | 0.30 | 0.28 | 92 | 1010.7 |
| 20260510033105 | 16 | 342 | 3.2 | 8.0 | 0.23 | 0.25 | 0.23 | 91 | 1011.3 |
| 20260510031604 | 16 | 355 | 0.0 | 0.0 | 0.18 | 0.20 | 0.18 | 89 | 1011.4 |
| 20260510024554 | 21 | 253 | 0.0 | 0.0 | 0.00 | 0.43 | 0.00 | 66 | 1010.3 |
| 20260510023053 | 21 | 236 | 0.0 | 0.0 | 0.00 | 0.43 | 0.00 | 62 | 1008.3 |
| 20260510021641 | 22 | 236 | 0.0 | 0.0 | 0.00 | 0.43 | 0.00 | 61 | 1008.0 |
| 20260510020057 | 22 | 236 | 0.0 | 0.0 | 0.00 | 0.43 | 0.00 | 59 | 1007.8 |
| 20260510014558 | 22 | 236 | 0.0 | 0.0 | 0.00 | 0.81 | 0.00 | 56 | 1007.5 |
| 20260510013100 | 23 | 236 | 0.0 | 0.0 | 0.00 | 0.81 | 0.00 | 53 | 1007.3 |
| 20260510011551 | 24 | 236 | 0.0 | 0.0 | 0.00 | 0.81 | 0.00 | 47 | 1007.2 |
| 20260510010057 | 25 | 273 | 0.0 | 0.0 | 0.00 | 0.81 | 0.00 | 46 | 1007.2 |
| 20260510004550 | 26 | 273 | 0.0 | 0.0 | 0.00 | 0.84 | 0.00 | 44 | 1007.1 |
| 20260510003050 | 26 | 273 | 0.0 | 0.0 | 0.00 | 0.84 | 0.00 | 41 | 1007.0 |
| 20260510001549 | 27 | 281 | 0.0 | 0.0 | 0.00 | 0.84 | 0.00 | 41 | 1006.9 |
| 20260510000050 | 27 | 281 | 0.0 | 0.0 | 0.00 | 0.84 | 0.00 | 40 | 1006.9 |
| 20260509234548 | 27 | 236 | 0.0 | 0.0 | 0.00 | 0.86 | 0.00 | 39 | 1006.8 |
| 20260509233047 | 27 | 234 | 0.0 | 0.0 | 0.00 | 0.86 | 0.00 | 39 | 1006.8 |
| 20260509231549 | 27 | 202 | 0.0 | 0.0 | 0.00 | 0.86 | 0.00 | 38 | 1006.8 |
| 20260509230050 | 27 | 263 | 0.0 | 0.0 | 0.00 | 0.86 | 0.00 | 40 | 1006.7 |
| 20260509224544 | 27 | 293 | 0.0 | 0.0 | 0.00 | 0.86 | 0.00 | 41 | 1006.7 |
| 20260509223042 | 27 | 198 | 0.0 | 0.0 | 0.00 | 0.86 | 0.00 | 39 | 1006.8 |
| 20260509221542 | 27 | 257 | 0.0 | 0.0 | 0.00 | 0.86 | 0.00 | 40 | 1006.8 |
| 20260509220040 | 27 | 254 | 0.0 | 0.0 | 0.00 | 0.86 | 0.00 | 41 | 1006.7 |
| 20260509214542 | 26 | 284 | 0.0 | 0.0 | 0.00 | 0.86 | 0.00 | 38 | 1006.8 |
| 20260509213040 | 27 | 275 | 0.0 | 0.0 | 0.00 | 0.86 | 0.00 | 40 | 1006.8 |
| 20260509211538 | 26 | 275 | 0.0 | 0.0 | 0.00 | 0.86 | 0.00 | 39 | 1007.0 |
| 20260509210044 | 26 | 259 | 0.0 | 0.0 | 0.00 | 0.86 | 0.00 | 39 | 1007.2 |